Terminal Aerodrome Forecast
Issued by NWS

Home | Current Version | Previous Version | Graphics & Text | Print | Product List | Glossary On
Versions: 1 2 3 4 5 6 7 8 9 10 11 12 13 14 15 16 17 18 19
000
FTUS43 KICT 211724
TAFRSL
TAF
KRSL 211724Z 2118/2218 17010G17KT 5SM BR OVC009
     FM212300 17015G21KT 3SM BR OVC005
     FM220600 18015G22KT 5SM BR OVC008
     FM221100 27015KT P6SM SCT015 BKN100
     FM221500 29015KT P6SM SCT100=

USA.gov is the U.S. government's official web portal to all federal, state and local government web resources and services.